Time;durP1;ratioP1;P1;durP2;ratioP2;P2;SDS_P1;SDS_P2;PMS_P1;PMS_P2;Temp;Humidity;BMP_temperature;BMP_pressure;BME280_temperature;BME280_humidity;BME280_pressure;Samples;Min_cycle;Max_cycle;Signal;HPM_P1;HPM_P2
2022/03/11 00:01:44;;;;;;;14.52;9.57;;;;;;;2.19;63.52;102657.59;4991433;28;20783;-44
2022/03/11 00:04:11;;;;;;;10.80;8.52;;;;;;;2.20;63.10;102662.00;4991261;28;20620;-43
2022/03/11 00:06:37;;;;;;;13.73;9.60;;;;;;;2.21;62.62;102655.00;4990699;28;20192;-43
2022/03/11 00:09:02;;;;;;;11.80;8.73;;;;;;;2.17;62.80;102659.31;4991415;28;20166;-43
2022/03/11 00:11:28;;;;;;;13.18;8.60;;;;;;;2.19;62.27;102649.66;4990422;28;20279;-42
2022/03/11 00:13:54;;;;;;;11.00;8.75;;;;;;;2.14;61.98;102637.16;4991173;28;20197;-43
2022/03/11 00:16:20;;;;;;;11.30;8.02;;;;;;;2.07;62.13;102636.13;4991912;28;20177;-43
2022/03/11 00:18:46;;;;;;;11.48;8.68;;;;;;;1.95;62.58;102649.91;4991565;28;20203;-45
2022/03/11 00:21:12;;;;;;;10.18;7.97;;;;;;;2.08;60.95;102632.63;4991283;28;20201;-42
2022/03/11 00:23:42;;;;;;;11.98;8.25;;;;;;;2.00;60.83;102637.69;4990924;28;20186;-42
2022/03/11 00:26:08;;;;;;;10.68;7.68;;;;;;;1.98;61.04;102636.78;4991025;28;20513;-44
2022/03/11 00:28:33;;;;;;;9.60;7.25;;;;;;;1.97;60.50;102640.28;4991405;28;20183;-43
2022/03/11 00:31:01;;;;;;;10.52;7.80;;;;;;;1.91;60.65;102640.09;4991320;28;20257;-44
2022/03/11 00:33:26;;;;;;;10.43;7.10;;;;;;;1.80;60.45;102631.00;4990288;28;20204;-44
2022/03/11 00:35:51;;;;;;;10.57;7.13;;;;;;;1.85;60.05;102638.19;4991355;28;20877;-44
2022/03/11 00:38:17;;;;;;;11.02;7.63;;;;;;;1.89;59.80;102636.53;4991019;28;20300;-44
2022/03/11 00:40:42;;;;;;;8.80;6.40;;;;;;;1.88;59.13;102642.69;4990962;28;20177;-44
2022/03/11 00:43:09;;;;;;;9.23;6.47;;;;;;;1.83;59.23;102636.38;4989181;28;20213;-43
2022/03/11 00:45:35;;;;;;;8.32;6.20;;;;;;;1.75;59.50;102632.59;4991036;28;20268;-43
2022/03/11 00:48:00;;;;;;;9.13;6.80;;;;;;;1.74;59.18;102644.03;4990963;28;20540;-44
2022/03/11 00:50:26;;;;;;;9.63;6.68;;;;;;;1.78;59.12;102651.22;4990926;28;20166;-44
2022/03/11 00:52:52;;;;;;;12.05;6.80;;;;;;;1.70;59.20;102643.06;4990064;28;20196;-44
2022/03/11 00:55:18;;;;;;;9.43;6.75;;;;;;;1.64;59.47;102656.13;4990725;28;20225;-45
2022/03/11 00:57:44;;;;;;;9.73;6.82;;;;;;;1.59;58.86;102650.69;4989496;28;20267;-45
2022/03/11 01:00:10;;;;;;;7.97;5.78;;;;;;;1.61;59.34;102643.69;4990753;28;20190;-45
2022/03/11 01:02:38;;;;;;;10.93;7.03;;;;;;;1.58;59.11;102648.91;4990194;28;20204;-45
2022/03/11 01:05:05;;;;;;;10.85;6.55;;;;;;;1.55;58.42;102643.56;4990653;28;20173;-44
2022/03/11 01:07:31;;;;;;;12.85;6.63;;;;;;;1.55;58.83;102634.69;4990751;28;20181;-44
2022/03/11 01:09:57;;;;;;;11.75;6.30;;;;;;;1.52;58.91;102646.09;4990365;28;20177;-43
2022/03/11 01:12:23;;;;;;;8.25;6.03;;;;;;;1.49;58.94;102645.09;4990209;28;20201;-43
2022/03/11 01:14:48;;;;;;;8.30;6.30;;;;;;;1.44;58.82;102637.03;4989599;28;20214;-43
2022/03/11 01:17:14;;;;;;;9.10;6.45;;;;;;;1.49;58.32;102635.44;4990627;28;20264;-44
2022/03/11 01:19:39;;;;;;;9.25;6.55;;;;;;;1.37;58.97;102643.00;4990609;28;20683;-43
2022/03/11 01:22:05;;;;;;;8.95;6.57;;;;;;;1.36;58.37;102628.03;4990010;28;20240;-43
2022/03/11 01:24:32;;;;;;;8.45;6.43;;;;;;;1.31;58.71;102634.91;4990067;28;20216;-42
2022/03/11 01:26:57;;;;;;;7.68;6.03;;;;;;;1.31;58.89;102624.34;4990110;28;20170;-42
2022/03/11 01:29:23;;;;;;;9.02;6.18;;;;;;;1.30;58.84;102623.44;4990412;28;20176;-43
2022/03/11 01:31:53;;;;;;;8.27;6.85;;;;;;;1.20;58.65;102624.03;4990054;28;20182;-44
2022/03/11 01:34:19;;;;;;;9.48;6.15;;;;;;;1.21;59.03;102617.91;4989889;28;20248;-43
2022/03/11 01:36:45;;;;;;;10.55;6.05;;;;;;;1.15;59.15;102613.34;4990509;28;20203;-45
2022/03/11 01:39:10;;;;;;;12.38;6.82;;;;;;;1.14;59.07;102608.91;4990242;28;20173;-44
2022/03/11 01:41:36;;;;;;;10.20;6.57;;;;;;;1.19;58.79;102617.84;4989951;28;20197;-44
2022/03/11 01:44:09;;;;;;;9.77;6.30;;;;;;;1.08;58.94;102613.13;4990086;28;20663;-43
2022/03/11 01:46:36;;;;;;;8.05;6.32;;;;;;;1.15;58.67;102608.06;4989134;28;20266;-44
2022/03/11 01:49:05;;;;;;;8.98;6.47;;;;;;;1.14;58.15;102602.75;4989929;28;20181;-46
2022/03/11 01:51:32;;;;;;;8.63;6.10;;;;;;;1.16;58.32;102607.22;4990345;28;20629;-45
2022/03/11 01:53:58;;;;;;;10.52;6.90;;;;;;;1.03;59.03;102619.16;4989859;28;20575;-44
2022/03/11 01:56:24;;;;;;;9.05;6.25;;;;;;;1.10;58.66;102608.78;4990213;28;20169;-44
2022/03/11 01:58:52;;;;;;;9.30;6.40;;;;;;;1.06;58.65;102599.88;4990133;28;20192;-45
2022/03/11 02:01:18;;;;;;;11.77;6.82;;;;;;;1.03;58.91;102615.63;4990339;28;20714;-44
2022/03/11 02:03:44;;;;;;;8.95;6.50;;;;;;;1.03;59.12;102613.00;4989468;28;20672;-45
2022/03/11 02:06:13;;;;;;;9.50;6.95;;;;;;;0.98;58.72;102604.94;4989799;28;20219;-43
2022/03/11 02:08:39;;;;;;;12.65;7.32;;;;;;;0.95;59.33;102611.88;4990362;28;20185;-44
2022/03/11 02:11:04;;;;;;;12.90;6.85;;;;;;;0.95;59.13;102615.38;4990132;28;20180;-43
2022/03/11 02:13:42;;;;;;;10.93;6.78;;;;;;;0.97;58.84;102603.13;4989779;28;20197;-43
2022/03/11 02:16:07;;;;;;;12.57;6.72;;;;;;;0.87;59.27;102614.25;4989633;28;20177;-44
2022/03/11 02:18:32;;;;;;;10.85;7.13;;;;;;;0.80;59.79;102607.91;4989762;28;20599;-43
2022/03/11 02:20:58;;;;;;;10.85;7.05;;;;;;;0.92;59.36;102617.03;4989768;28;20205;-44
2022/03/11 02:23:25;;;;;;;12.00;7.05;;;;;;;0.86;59.47;102606.31;4989043;28;20193;-45
2022/03/11 02:25:50;;;;;;;9.27;6.95;;;;;;;0.77;60.02;102609.56;4991040;28;20177;-43
2022/03/11 02:28:16;;;;;;;9.93;7.55;;;;;;;0.82;59.79;102611.47;4976059;28;20228;-43
2022/03/11 02:30:41;;;;;;;10.30;7.05;;;;;;;0.80;59.47;102599.09;4993115;28;20248;-43
2022/03/11 02:33:07;;;;;;;11.13;7.40;;;;;;;0.86;59.02;102598.41;4995925;28;20197;-42
2022/03/11 02:35:32;;;;;;;9.95;7.28;;;;;;;0.76;59.87;102599.84;5010982;28;20177;-44
2022/03/11 02:37:57;;;;;;;9.13;6.85;;;;;;;0.74;59.63;102597.16;5011369;28;20667;-44
2022/03/11 02:40:23;;;;;;;8.93;6.72;;;;;;;0.78;59.55;102599.03;5011127;28;20185;-42
2022/03/11 02:42:48;;;;;;;10.95;6.90;;;;;;;0.81;58.56;102596.50;5011805;28;20239;-42
2022/03/11 02:45:13;;;;;;;11.85;6.80;;;;;;;0.75;59.03;102598.97;5013348;28;20276;-43
2022/03/11 02:47:39;;;;;;;10.25;7.50;;;;;;;0.69;59.26;102601.41;5012553;28;20290;-44
2022/03/11 02:50:05;;;;;;;8.82;6.57;;;;;;;0.67;59.19;102592.53;5012841;28;20177;-43
2022/03/11 02:52:31;;;;;;;10.32;7.35;;;;;;;0.64;59.84;102602.13;5012055;28;20695;-44
2022/03/11 02:54:56;;;;;;;11.25;7.70;;;;;;;0.65;59.30;102596.00;5012772;28;20168;-43
2022/03/11 02:57:21;;;;;;;10.02;6.85;;;;;;;0.65;59.48;102603.91;5011168;28;20172;-44
2022/03/11 02:59:47;;;;;;;10.02;7.20;;;;;;;0.59;59.20;102600.22;5012639;28;20523;-43
2022/03/11 03:02:12;;;;;;;11.00;6.38;;;;;;;0.63;59.19;102598.56;5011956;28;20216;-42
2022/03/11 03:04:38;;;;;;;10.45;6.90;;;;;;;0.64;59.42;102592.47;5011259;28;20256;-43
2022/03/11 03:07:04;;;;;;;10.10;7.57;;;;;;;0.62;59.64;102604.69;5012332;28;20196;-43
2022/03/11 03:09:30;;;;;;;10.02;6.82;;;;;;;0.55;59.08;102594.81;5012303;28;20247;-44
2022/03/11 03:11:55;;;;;;;10.43;6.90;;;;;;;0.53;59.20;102599.16;5011895;28;20461;-43
2022/03/11 03:14:21;;;;;;;9.60;7.00;;;;;;;0.48;59.86;102588.47;5011746;28;20223;-44
2022/03/11 03:16:47;;;;;;;10.52;7.03;;;;;;;0.51;59.49;102590.28;5012084;28;20177;-44
2022/03/11 03:19:13;;;;;;;10.30;7.25;;;;;;;0.49;58.88;102591.97;5012322;28;20189;-43
2022/03/11 03:21:39;;;;;;;11.75;6.75;;;;;;;0.50;59.51;102591.13;5012116;28;20297;-44
2022/03/11 03:24:05;;;;;;;11.93;6.80;;;;;;;0.47;59.17;102593.66;5011522;28;20215;-43
2022/03/11 03:26:31;;;;;;;10.25;7.20;;;;;;;0.45;59.56;102587.44;5011891;28;20188;-43
2022/03/11 03:28:56;;;;;;;9.77;6.65;;;;;;;0.44;59.03;102599.75;5012073;28;20951;-43
2022/03/11 03:31:22;;;;;;;13.20;7.15;;;;;;;0.40;59.10;102598.75;5009329;28;20227;-44
2022/03/11 03:33:48;;;;;;;16.92;7.35;;;;;;;0.37;59.57;102598.66;4992028;28;20204;-44
2022/03/11 03:36:14;;;;;;;10.68;7.15;;;;;;;0.36;59.02;102601.25;4992459;28;20192;-44
2022/03/11 03:38:40;;;;;;;10.10;7.20;;;;;;;0.36;59.36;102606.50;4991623;28;20174;-44
2022/03/11 03:41:05;;;;;;;9.90;6.93;;;;;;;0.38;59.50;102610.09;4992074;28;20356;-44
2022/03/11 03:43:32;;;;;;;11.07;6.53;;;;;;;0.35;59.26;102602.06;4992069;28;20262;-44
2022/03/11 03:45:58;;;;;;;9.15;6.93;;;;;;;0.30;59.16;102603.66;4992227;28;20181;-44
2022/03/11 03:48:23;;;;;;;10.57;7.40;;;;;;;0.25;59.46;102594.72;4992010;28;20482;-42
2022/03/11 03:50:49;;;;;;;10.23;7.43;;;;;;;0.32;59.02;102604.63;4992330;28;20197;-44
2022/03/11 03:53:14;;;;;;;10.90;6.85;;;;;;;0.28;59.06;102608.00;4991103;28;20197;-43
2022/03/11 03:55:39;;;;;;;13.18;7.38;;;;;;;0.28;59.48;102598.34;4991990;28;20169;-43
2022/03/11 03:58:05;;;;;;;9.85;6.85;;;;;;;0.23;59.55;102599.94;4991627;28;20188;-44
2022/03/11 04:00:30;;;;;;;10.35;7.28;;;;;;;0.22;59.65;102598.16;4991759;28;20228;-43
2022/03/11 04:02:56;;;;;;;10.32;6.72;;;;;;;0.21;59.56;102599.00;4991296;28;20217;-43
2022/03/11 04:05:21;;;;;;;12.80;7.18;;;;;;;0.15;60.01;102591.78;4991701;28;20284;-42
2022/03/11 04:07:48;;;;;;;11.95;8.20;;;;;;;0.19;60.06;102593.66;4992066;28;20162;-45
2022/03/11 04:10:15;;;;;;;12.43;6.90;;;;;;;0.11;60.27;102579.34;4991683;28;20216;-44
2022/03/11 04:12:40;;;;;;;14.63;7.40;;;;;;;0.07;60.16;102587.13;4990892;28;20193;-44
2022/03/11 04:15:07;;;;;;;11.27;7.25;;;;;;;0.01;60.96;102584.28;4991868;28;20193;-43
2022/03/11 04:17:32;;;;;;;10.93;7.50;;;;;;;0.01;60.93;102586.91;4991606;28;20185;-44
2022/03/11 04:19:59;;;;;;;9.70;6.60;;;;;;;0.10;60.84;102587.22;4991666;28;20177;-44
2022/03/11 04:22:25;;;;;;;10.27;6.88;;;;;;;0.10;60.78;102580.19;4990702;28;20206;-44
2022/03/11 04:24:51;;;;;;;14.02;7.50;;;;;;;0.03;60.25;102591.38;4991354;28;20185;-42
2022/03/11 04:27:16;;;;;;;10.57;6.82;;;;;;;-0.03;61.18;102576.25;4991475;28;20532;-42
2022/03/11 04:29:42;;;;;;;9.73;6.90;;;;;;;-0.02;60.84;102574.53;4991389;28;20182;-43
2022/03/11 04:32:07;;;;;;;9.95;7.50;;;;;;;0.04;61.08;102571.19;5004557;28;20196;-44
2022/03/11 04:34:36;;;;;;;10.88;6.90;;;;;;;-0.05;61.10;102569.13;5010837;28;20196;-43
2022/03/11 04:37:02;;;;;;;10.18;6.57;;;;;;;-0.06;61.45;102575.28;5010684;28;20180;-45
2022/03/11 04:39:28;;;;;;;9.80;7.15;;;;;;;-0.11;61.26;102571.56;5009129;28;20651;-42
2022/03/11 04:41:56;;;;;;;10.70;7.07;;;;;;;-0.22;61.56;102566.84;5007905;28;20204;-44
2022/03/11 04:44:22;;;;;;;9.00;6.82;;;;;;;-0.17;61.50;102561.72;5009971;28;20175;-44
2022/03/11 04:46:48;;;;;;;12.05;7.07;;;;;;;-0.26;62.06;102570.22;5010618;28;20200;-43
2022/03/11 04:49:13;;;;;;;11.45;7.05;;;;;;;-0.17;62.17;102560.84;5009216;28;20164;-43
2022/03/11 04:51:39;;;;;;;11.35;7.65;;;;;;;-0.22;61.66;102563.28;5009070;28;20244;-43
2022/03/11 04:54:06;;;;;;;12.68;7.18;;;;;;;-0.26;62.66;102566.69;5010084;28;20188;-44
2022/03/11 04:56:32;;;;;;;11.00;7.45;;;;;;;-0.37;63.36;102560.13;5010565;28;20168;-43
2022/03/11 04:58:58;;;;;;;11.75;7.90;;;;;;;-0.32;63.10;102569.09;5010624;28;20216;-43
2022/03/11 05:01:23;;;;;;;12.10;7.68;;;;;;;-0.34;63.69;102561.16;5010474;28;20280;-44
2022/03/11 05:03:49;;;;;;;9.68;7.55;;;;;;;-0.37;63.75;102568.03;5010040;28;20224;-43
2022/03/11 05:06:14;;;;;;;11.20;7.05;;;;;;;-0.37;63.99;102566.31;5010558;28;20183;-44
2022/03/11 05:08:39;;;;;;;9.80;6.97;;;;;;;-0.39;63.52;102554.84;5010256;28;20200;-43
2022/03/11 05:11:05;;;;;;;9.45;7.10;;;;;;;-0.48;64.54;102563.31;5010204;28;20172;-43
2022/03/11 05:13:30;;;;;;;10.13;7.50;;;;;;;-0.54;65.34;102562.19;5009315;28;20227;-44
2022/03/11 05:15:56;;;;;;;11.20;7.55;;;;;;;-0.58;65.62;102563.81;5010464;28;20176;-44
2022/03/11 05:18:21;;;;;;;11.10;7.38;;;;;;;-0.61;65.73;102569.00;5010330;28;20187;-42
2022/03/11 05:20:47;;;;;;;12.25;7.57;;;;;;;-0.59;65.31;102555.84;5009849;28;20185;-43
2022/03/11 05:23:12;;;;;;;9.98;6.90;;;;;;;-0.60;66.01;102565.50;5009024;28;20279;-45
2022/03/11 05:25:38;;;;;;;13.13;8.15;;;;;;;-0.62;65.68;102559.28;5010032;28;20169;-44
2022/03/11 05:28:04;;;;;;;11.30;7.40;;;;;;;-0.63;66.25;102554.88;5009694;28;20169;-43
2022/03/11 05:30:30;;;;;;;13.07;7.63;;;;;;;-0.64;66.12;102559.22;5010088;28;20377;-43
2022/03/11 05:32:55;;;;;;;11.27;7.43;;;;;;;-0.57;65.31;102562.97;4993754;28;20660;-44
2022/03/11 05:35:20;;;;;;;10.70;7.35;;;;;;;-0.60;64.57;102561.97;4989990;28;20220;-44
2022/03/11 05:37:47;;;;;;;14.18;7.13;;;;;;;-0.55;64.06;102563.03;4989696;28;20596;-43
2022/03/11 05:40:13;;;;;;;11.57;7.28;;;;;;;-0.60;64.78;102554.09;4989742;28;20177;-43
2022/03/11 05:42:39;;;;;;;11.00;7.47;;;;;;;-0.60;64.49;102552.34;4989326;28;20235;-44
2022/03/11 05:45:07;;;;;;;13.43;7.18;;;;;;;-0.64;64.51;102547.81;5031409;23;20269;-46
2022/03/11 05:47:33;;;;;;;11.05;7.05;;;;;;;-0.63;64.45;102546.97;5030480;28;20661;-45
2022/03/11 05:49:58;;;;;;;12.65;7.22;;;;;;;-0.57;63.20;102546.28;5029481;28;20161;-45
2022/03/11 05:52:24;;;;;;;12.82;8.35;;;;;;;-0.59;62.82;102538.34;5028856;28;20196;-47
2022/03/11 05:54:49;;;;;;;10.75;7.35;;;;;;;-0.58;63.01;102553.28;5029304;28;20525;-46
2022/03/11 05:57:15;;;;;;;15.63;7.65;;;;;;;-0.56;62.28;102551.59;5028972;28;20198;-46
2022/03/11 05:59:40;;;;;;;10.05;7.15;;;;;;;-0.59;62.29;102540.06;5029463;28;20183;-47
2022/03/11 06:02:06;;;;;;;11.68;7.50;;;;;;;-0.62;62.33;102549.63;5032217;28;20203;-45
2022/03/11 06:04:31;;;;;;;11.68;7.38;;;;;;;-0.57;61.89;102551.53;5033322;28;20579;-47
2022/03/11 06:06:57;;;;;;;12.20;7.22;;;;;;;-0.58;61.73;102534.88;5032245;28;20258;-46
2022/03/11 06:09:22;;;;;;;12.32;7.38;;;;;;;-0.54;61.62;102549.03;5033418;28;20175;-46
2022/03/11 06:11:47;;;;;;;10.70;7.15;;;;;;;-0.56;62.28;102545.47;5033598;28;20164;-42
2022/03/11 06:14:13;;;;;;;13.60;7.47;;;;;;;-0.51;61.29;102538.59;5033174;28;20246;-46
2022/03/11 06:16:39;;;;;;;13.55;7.50;;;;;;;-0.51;61.53;102539.50;5033483;28;20702;-45
2022/03/11 06:19:04;;;;;;;10.13;7.60;;;;;;;-0.55;61.39;102536.69;5033145;28;20259;-45
2022/03/11 06:21:30;;;;;;;10.30;7.38;;;;;;;-0.49;60.80;102535.19;5032489;28;20589;-47
2022/03/11 06:23:56;;;;;;;12.93;7.72;;;;;;;-0.42;60.47;102529.31;5032651;28;20246;-45
2022/03/11 06:26:21;;;;;;;10.18;7.10;;;;;;;-0.36;60.49;102530.34;5033142;28;20168;-47
2022/03/11 06:28:47;;;;;;;12.63;6.93;;;;;;;-0.35;60.03;102532.13;5032994;28;20543;-45
2022/03/11 06:31:13;;;;;;;10.40;7.28;;;;;;;-0.32;60.02;102535.75;5032975;28;20183;-46
2022/03/11 06:33:39;;;;;;;15.07;7.75;;;;;;;-0.22;59.88;102540.50;5032548;28;20204;-45
2022/03/11 06:36:06;;;;;;;13.85;7.35;;;;;;;-0.14;59.29;102539.84;5033048;28;20172;-49
2022/03/11 06:38:32;;;;;;;13.70;7.70;;;;;;;-0.09;59.26;102540.91;5032628;28;20172;-44
2022/03/11 06:40:57;;;;;;;9.98;6.60;;;;;;;-0.03;58.84;102541.09;5032806;28;20679;-45
2022/03/11 06:43:23;;;;;;;11.50;6.80;;;;;;;0.10;59.28;102537.13;5032646;28;20670;-45
2022/03/11 06:45:49;;;;;;;11.25;7.15;;;;;;;0.14;58.72;102539.03;5032938;28;20711;-47
2022/03/11 06:48:18;;;;;;;10.65;6.93;;;;;;;0.15;58.46;102543.44;5032700;28;20202;-45
2022/03/11 06:50:43;;;;;;;9.90;6.68;;;;;;;0.27;57.71;102550.88;5014964;28;20164;-44
2022/03/11 06:53:12;;;;;;;12.13;7.72;;;;;;;0.47;57.79;102535.66;5032406;28;20203;-45
2022/03/11 06:55:37;;;;;;;11.85;6.95;;;;;;;0.56;57.41;102531.53;5032996;28;20176;-43
2022/03/11 06:58:03;;;;;;;11.60;6.97;;;;;;;0.67;56.62;102538.91;5032379;28;20582;-44
2022/03/11 07:00:29;;;;;;;8.73;6.57;;;;;;;0.97;56.10;102531.88;5033194;28;20549;-42
2022/03/11 07:02:55;;;;;;;13.32;7.30;;;;;;;1.04;55.46;102527.66;5032456;28;20208;-46
2022/03/11 07:05:20;;;;;;;10.13;6.68;;;;;;;1.20;55.12;102535.19;5032626;28;20168;-45
2022/03/11 07:07:46;;;;;;;12.85;6.97;;;;;;;1.39;54.53;102528.63;5032808;28;20198;-46
2022/03/11 07:10:16;;;;;;;11.35;6.68;;;;;;;1.63;53.93;102528.38;5034710;28;20571;-46
2022/03/11 07:12:41;;;;;;;12.23;6.97;;;;;;;1.68;52.88;102525.88;5051818;28;20183;-45
2022/03/11 07:15:07;;;;;;;10.48;6.57;;;;;;;1.88;52.72;102526.41;5052112;28;20179;-48
2022/03/11 07:17:33;;;;;;;15.18;7.40;;;;;;;2.13;51.44;102527.88;5052144;28;20190;-45
2022/03/11 07:19:59;;;;;;;12.95;7.35;;;;;;;2.03;51.09;102521.47;5052542;28;20171;-48
2022/03/11 07:22:25;;;;;;;10.93;6.68;;;;;;;2.20;49.95;102531.56;5051394;28;20217;-45
2022/03/11 07:24:51;;;;;;;9.52;6.25;;;;;;;2.19;49.47;102524.50;5052162;28;20229;-45
2022/03/11 07:27:16;;;;;;;11.88;7.32;;;;;;;2.48;48.55;102519.84;5052234;28;20179;-45
2022/03/11 07:29:42;;;;;;;8.98;6.35;;;;;;;2.59;47.97;102520.09;5052150;28;20262;-46
2022/03/11 07:32:12;;;;;;;12.13;7.20;;;;;;;2.46;48.21;102519.81;5042723;28;20168;-45
2022/03/11 07:34:38;;;;;;;10.50;6.83;;;;;;;2.55;47.37;102519.13;5031585;28;20413;-47
2022/03/11 07:37:03;;;;;;;11.23;6.55;;;;;;;2.50;47.81;102523.44;5032538;28;20263;-46
2022/03/11 07:39:29;;;;;;;10.27;6.40;;;;;;;3.00;47.42;102514.78;5032092;28;20202;-44
2022/03/11 07:41:54;;;;;;;10.98;7.10;;;;;;;2.57;46.72;102516.53;5031418;28;20200;-46
2022/03/11 07:44:20;;;;;;;11.63;6.57;;;;;;;2.92;46.52;102519.91;5030485;28;20210;-44
2022/03/11 07:46:46;;;;;;;8.43;6.13;;;;;;;2.49;45.88;102521.63;5028272;28;20656;-46
2022/03/11 07:49:12;;;;;;;10.38;6.15;;;;;;;2.71;46.12;102515.06;5029781;28;20680;-45
2022/03/11 07:51:38;;;;;;;11.52;6.72;;;;;;;2.64;46.20;102513.16;5029738;28;20252;-46
2022/03/11 07:54:04;;;;;;;10.10;6.65;;;;;;;2.68;46.05;102522.94;5030558;28;20192;-44
2022/03/11 07:56:29;;;;;;;11.88;6.45;;;;;;;3.00;46.16;102513.03;5030193;28;20172;-47
2022/03/11 07:58:56;;;;;;;11.40;6.55;;;;;;;3.37;45.34;102508.44;5029339;28;20722;-47
2022/03/11 08:01:21;;;;;;;11.05;6.28;;;;;;;3.05;45.11;102499.88;5028924;28;20223;-46
2022/03/11 08:03:47;;;;;;;10.95;6.43;;;;;;;3.06;45.64;102506.94;5029699;28;21098;-47
2022/03/11 08:06:12;;;;;;;11.20;6.82;;;;;;;3.19;44.50;102503.69;5029568;28;20188;-47
2022/03/11 08:08:38;;;;;;;8.93;6.28;;;;;;;3.38;44.56;102504.03;5030086;28;20184;-46
2022/03/11 08:11:05;;;;;;;9.75;6.72;;;;;;;2.73;43.82;102507.16;5030708;28;20191;-47
2022/03/11 08:13:31;;;;;;;10.93;6.60;;;;;;;2.54;45.13;102506.78;5029706;28;20188;-44
2022/03/11 08:15:57;;;;;;;10.90;6.60;;;;;;;3.23;44.80;102496.69;5029082;28;20688;-45
2022/03/11 08:18:22;;;;;;;15.27;7.18;;;;;;;2.85;44.54;102479.19;5029858;28;20211;-46
2022/03/11 08:20:48;;;;;;;10.13;6.63;;;;;;;2.78;44.72;102493.16;5029602;28;20176;-46
2022/03/11 08:23:14;;;;;;;8.60;5.70;;;;;;;2.85;44.25;102484.47;5029033;28;20636;-45
2022/03/11 08:25:40;;;;;;;11.63;6.53;;;;;;;3.39;44.52;102471.34;5029317;28;20642;-48
2022/03/11 08:28:07;;;;;;;8.98;6.22;;;;;;;3.18;43.88;102486.00;5029756;28;20225;-45
2022/03/11 08:30:34;;;;;;;10.02;6.65;;;;;;;3.07;43.40;102487.56;5027137;28;20188;-46
2022/03/11 08:33:00;;;;;;;8.77;6.40;;;;;;;2.93;43.31;102476.72;5028244;28;20218;-45
2022/03/11 08:35:27;;;;;;;12.32;7.28;;;;;;;3.17;43.17;102471.00;5029115;28;20710;-43
2022/03/11 08:37:53;;;;;;;11.73;6.72;;;;;;;3.41;43.02;102472.28;5029731;28;20253;-48
2022/03/11 08:40:24;;;;;;;11.07;7.03;;;;;;;3.46;43.00;102476.81;5029530;28;20184;-47
2022/03/11 08:42:54;;;;;;;10.68;6.72;;;;;;;3.18;42.52;102470.13;5025766;28;20242;-43
2022/03/11 08:45:21;;;;;;;10.43;6.63;;;;;;;3.34;41.95;102479.22;5026010;28;20188;-44
2022/03/11 08:47:47;;;;;;;11.45;6.75;;;;;;;3.55;42.05;102470.78;5029905;28;20176;-46
2022/03/11 08:50:14;;;;;;;9.00;6.07;;;;;;;3.50;41.33;102465.41;5029794;28;20169;-47
2022/03/11 08:52:40;;;;;;;9.57;5.93;;;;;;;3.83;41.05;102468.59;5029401;28;20202;-48
2022/03/11 08:55:06;;;;;;;12.18;7.45;;;;;;;3.87;41.34;102457.16;5029033;28;20251;-47
2022/03/11 08:57:31;;;;;;;9.85;6.32;;;;;;;3.84;41.21;102463.28;5030710;28;20172;-46
2022/03/11 08:59:57;;;;;;;8.32;6.07;;;;;;;3.75;41.25;102462.28;5030308;28;20190;-47
2022/03/11 09:02:23;;;;;;;8.98;6.30;;;;;;;4.02;41.31;102461.81;5029839;28;20203;-44
2022/03/11 09:04:48;;;;;;;8.38;6.20;;;;;;;4.20;40.66;102447.91;5030658;28;20189;-43
2022/03/11 09:07:14;;;;;;;8.75;5.70;;;;;;;4.15;40.02;102437.22;5030092;28;20286;-47
2022/03/11 09:09:40;;;;;;;8.38;5.47;;;;;;;4.00;39.23;102442.31;5030332;28;20579;-47
2022/03/11 09:12:06;;;;;;;9.63;6.00;;;;;;;4.04;39.07;102454.75;5030443;28;20590;-47
2022/03/11 09:14:32;;;;;;;9.93;6.40;;;;;;;4.36;39.18;102441.97;5029839;28;20258;-46
2022/03/11 09:16:59;;;;;;;9.90;5.85;;;;;;;4.16;39.33;102419.59;5030439;28;20255;-47
2022/03/11 09:19:24;;;;;;;11.15;6.30;;;;;;;4.32;39.94;102418.91;5030352;28;20560;-46
2022/03/11 09:21:49;;;;;;;8.60;5.55;;;;;;;4.01;39.64;102428.22;5029869;28;20196;-46
2022/03/11 09:24:16;;;;;;;8.60;5.57;;;;;;;4.49;39.23;102420.00;5029938;28;20214;-47
2022/03/11 09:26:41;;;;;;;11.27;5.65;;;;;;;4.07;38.48;102426.53;5029920;28;20199;-45
2022/03/11 09:29:07;;;;;;;10.27;6.00;;;;;;;4.21;38.65;102409.91;5029827;28;20614;-47
2022/03/11 09:31:34;;;;;;;12.20;6.40;;;;;;;4.49;38.04;102419.13;5029897;28;20631;-47
2022/03/11 09:34:00;;;;;;;10.38;5.75;;;;;;;4.52;37.52;102405.88;5029600;28;20192;-44
2022/03/11 09:36:26;;;;;;;7.90;5.60;;;;;;;4.51;37.62;102406.78;5029075;28;20295;-46
2022/03/11 09:38:52;;;;;;;10.77;5.60;;;;;;;4.78;37.12;102402.66;5029854;28;20624;-48
2022/03/11 09:41:19;;;;;;;8.18;5.82;;;;;;;4.61;36.62;102405.09;5030108;28;20286;-47
2022/03/11 09:43:45;;;;;;;8.93;5.97;;;;;;;5.08;36.27;102391.47;5029021;28;20196;-47
2022/03/11 09:46:14;;;;;;;9.23;5.75;;;;;;;4.87;35.88;102405.41;5030082;28;20194;-47
2022/03/11 09:48:41;;;;;;;14.57;5.68;;;;;;;5.03;35.72;102415.31;5029746;28;20259;-47
2022/03/11 09:51:09;;;;;;;12.43;5.00;;;;;;;5.14;35.27;102391.53;5029534;28;20188;-45
2022/03/11 09:53:35;;;;;;;7.55;5.43;;;;;;;5.23;35.15;102388.94;5029266;28;20574;-47
2022/03/11 09:56:01;;;;;;;8.75;5.45;;;;;;;5.02;34.78;102383.41;5027756;28;20212;-46
2022/03/11 09:58:26;;;;;;;8.52;5.40;;;;;;;5.27;34.93;102382.78;5027806;28;20164;-45
2022/03/11 10:00:52;;;;;;;9.93;5.75;;;;;;;5.47;34.25;102382.94;5029115;28;20214;-47
2022/03/11 10:03:17;;;;;;;12.05;5.88;;;;;;;5.36;34.64;102385.50;5028973;28;20252;-46
2022/03/11 10:05:45;;;;;;;10.30;4.75;;;;;;;5.47;34.37;102385.59;5027015;28;20168;-45
2022/03/11 10:08:10;;;;;;;7.25;4.93;;;;;;;5.41;33.17;102382.00;5027852;28;20179;-45
2022/03/11 10:10:36;;;;;;;6.18;4.63;;;;;;;5.37;32.57;102381.06;5028594;28;20717;-46
2022/03/11 10:13:01;;;;;;;8.95;5.13;;;;;;;5.25;32.74;102362.41;5028493;28;20202;-43
2022/03/11 10:15:29;;;;;;;10.88;5.43;;;;;;;5.56;33.04;102358.19;5027644;28;20195;-47
2022/03/11 10:17:55;;;;;;;8.73;4.78;;;;;;;5.40;33.10;102361.59;5028483;28;20180;-45
2022/03/11 10:20:21;;;;;;;10.00;5.07;;;;;;;5.47;33.11;102363.44;5027627;28;20242;-45
2022/03/11 10:22:47;;;;;;;7.13;5.15;;;;;;;5.81;32.54;102339.72;5028193;28;20207;-45
2022/03/11 10:25:18;;;;;;;8.93;5.38;;;;;;;6.09;31.86;102348.78;5028295;28;20183;-46
2022/03/11 10:27:58;;;;;;;12.32;5.28;;;;;;;6.09;33.20;102351.44;5044386;28;20262;-48
2022/03/11 10:30:26;;;;;;;5.53;4.90;;;;;;;6.37;32.80;102341.81;5028447;28;20572;-44
2022/03/11 10:32:53;;;;;;;9.93;5.03;;;;;;;6.22;31.92;102347.06;5028791;28;20248;-49
2022/03/11 10:35:18;;;;;;;8.18;4.97;;;;;;;6.14;31.68;102347.03;5029733;28;20168;-44
2022/03/11 10:38:10;;;;;;;10.68;4.57;;;;;;;5.92;30.97;102338.00;5029339;28;20282;-47
2022/03/11 10:40:42;;;;;;;8.40;4.70;;;;;;;6.02;31.27;102337.22;5029686;28;20270;-44
2022/03/11 10:43:09;;;;;;;7.35;4.97;;;;;;;6.11;31.25;102329.28;5029010;28;20207;-47
2022/03/11 10:45:45;;;;;;;11.63;4.95;;;;;;;6.27;31.12;102329.34;5028981;28;20212;-44
2022/03/11 10:48:11;;;;;;;5.88;4.22;;;;;;;6.44;30.37;102318.75;5032266;28;20160;-43
2022/03/11 10:50:37;;;;;;;7.68;4.35;;;;;;;6.38;30.35;102316.94;5033129;28;20639;-44
2022/03/11 10:53:07;;;;;;;8.57;4.95;;;;;;;6.53;31.00;102324.09;5032323;28;20199;-46
2022/03/11 10:55:33;;;;;;;4.95;4.13;;;;;;;6.64;31.20;102316.13;5031942;28;20160;-44
2022/03/11 10:58:05;;;;;;;6.50;4.18;;;;;;;6.49;30.70;102328.50;5032415;28;20547;-43
2022/03/11 11:00:36;;;;;;;5.80;4.50;;;;;;;6.33;30.41;102313.41;5032879;28;20202;-44
2022/03/11 11:03:07;;;;;;;9.25;4.57;;;;;;;6.75;31.06;102319.69;5032028;28;20591;-45
2022/03/11 11:05:33;;;;;;;8.27;5.40;;;;;;;6.53;29.71;102319.66;5032542;28;20303;-46
2022/03/11 11:08:01;;;;;;;8.45;5.00;;;;;;;6.87;29.65;102308.19;5032864;28;20581;-46
2022/03/11 11:10:30;;;;;;;10.85;4.25;;;;;;;7.09;29.24;102301.09;5032369;28;20176;-46
2022/03/11 11:12:56;;;;;;;7.88;4.75;;;;;;;7.21;29.49;102314.41;5032010;28;20192;-45
2022/03/11 11:15:22;;;;;;;6.15;4.50;;;;;;;7.06;29.48;102304.63;5032029;28;20559;-46
2022/03/11 11:17:49;;;;;;;11.50;4.25;;;;;;;7.14;29.63;102309.97;5032309;28;20172;-44
2022/03/11 11:20:37;;;;;;;8.30;4.88;;;;;;;6.79;29.73;102293.06;5032770;28;20176;-48
2022/03/11 11:23:06;;;;;;;6.90;4.50;;;;;;;7.10;29.62;102298.41;5031671;28;20746;-47